createdAt,value
2019-02-28T19:55:46.405Z,29.48
2019-02-28T19:58:12.595Z,23.70
2019-02-28T20:00:38.849Z,26.47
2019-02-28T20:03:05.130Z,20.72
2019-02-28T20:05:31.381Z,22.90
2019-02-28T20:07:57.643Z,26.07
2019-02-28T20:10:23.935Z,21.55
2019-02-28T20:12:50.188Z,26.73
2019-02-28T20:15:19.762Z,22.33
2019-02-28T20:17:46.024Z,31.48
2019-02-28T20:20:21.908Z,26.00
2019-02-28T20:22:48.228Z,27.98
2019-02-28T20:25:14.481Z,24.37
2019-02-28T20:27:40.748Z,32.10
2019-02-28T20:30:10.621Z,17.47
2019-02-28T20:32:36.878Z,21.40
2019-02-28T20:35:05.052Z,20.17
2019-02-28T20:37:31.337Z,21.73
2019-02-28T20:39:57.607Z,21.87
2019-02-28T20:42:23.848Z,21.63
2019-02-28T20:44:50.123Z,21.45
2019-02-28T20:47:16.376Z,26.02
2019-02-28T20:49:42.754Z,16.03
2019-02-28T20:52:09.029Z,20.27
2019-02-28T20:54:35.298Z,21.30
2019-02-28T20:57:01.600Z,21.73
2019-02-28T20:59:27.884Z,25.43
2019-02-28T21:01:54.185Z,20.13
2019-02-28T21:04:20.437Z,18.77
2019-02-28T21:06:47.783Z,23.92
2019-02-28T21:09:15.972Z,22.25
2019-02-28T21:14:11.777Z,16.30
2019-02-28T21:16:38.063Z,18.87
2019-02-28T21:19:04.324Z,16.47
2019-02-28T21:21:30.608Z,19.45
2019-02-28T21:23:56.880Z,19.83
2019-02-28T21:26:23.140Z,17.77
2019-02-28T21:28:49.428Z,20.27
2019-02-28T21:31:15.680Z,22.00
2019-02-28T21:33:41.937Z,20.72
2019-02-28T21:36:08.242Z,23.03
2019-02-28T21:38:34.505Z,23.40
2019-02-28T21:41:00.761Z,23.30
2019-02-28T21:43:27.667Z,19.00
2019-02-28T21:45:53.896Z,19.02
2019-02-28T21:48:20.152Z,22.37
2019-02-28T21:50:46.420Z,20.10
2019-02-28T21:53:12.700Z,24.77
2019-02-28T21:55:38.953Z,23.93
2019-02-28T21:58:05.237Z,20.43
2019-02-28T22:00:31.493Z,20.57
2019-02-28T22:02:57.757Z,26.77
2019-02-28T22:05:24.057Z,22.58
2019-02-28T22:07:50.308Z,26.07
2019-02-28T22:10:16.556Z,24.87
2019-02-28T22:12:42.940Z,23.53
2019-02-28T22:17:30.476Z,28.70
2019-02-28T22:19:57.920Z,24.77
2019-02-28T22:22:25.382Z,26.50
2019-02-28T22:24:52.844Z,24.92
2019-02-28T22:27:20.312Z,25.08
2019-02-28T22:29:47.828Z,23.12
2019-02-28T22:32:24.463Z,27.22
2019-02-28T22:35:10.268Z,24.07
2019-02-28T22:37:37.706Z,31.70
2019-02-28T22:40:05.532Z,23.95
2019-02-28T22:42:32.980Z,26.97
2019-02-28T22:45:00.311Z,29.72
2019-02-28T22:47:27.776Z,23.62
2019-02-28T22:49:55.213Z,23.07
2019-02-28T22:52:22.673Z,30.82
2019-02-28T22:54:50.148Z,34.73
2019-02-28T22:57:17.688Z,32.70
2019-02-28T22:59:45.106Z,30.82
2019-02-28T23:02:12.552Z,30.02
2019-02-28T23:04:39.984Z,31.52
2019-02-28T23:07:07.431Z,35.48
2019-02-28T23:09:34.905Z,31.42
2019-02-28T23:12:02.357Z,37.85
2019-02-28T23:14:29.800Z,30.35
2019-02-28T23:16:57.257Z,30.60
2019-02-28T23:19:24.689Z,39.90
2019-02-28T23:21:52.030Z,36.53
2019-02-28T23:24:19.533Z,33.63
2019-02-28T23:27:09.473Z,39.67
2019-02-28T23:29:37.197Z,50.83
2019-02-28T23:32:34.573Z,42.90
2019-02-28T23:35:02.015Z,37.95
2019-02-28T23:37:29.432Z,33.95
2019-02-28T23:39:56.911Z,40.08
2019-02-28T23:42:24.340Z,47.85
2019-02-28T23:44:51.787Z,44.50
2019-02-28T23:47:19.252Z,36.85
2019-02-28T23:49:46.716Z,37.88
2019-02-28T23:52:14.157Z,39.20
2019-02-28T23:54:41.617Z,29.98
2019-02-28T23:57:09.032Z,32.23
2019-02-28T23:59:36.461Z,31.00
